Time;durP1;ratioP1;P1;durP2;ratioP2;P2;SDS_P1;SDS_P2;PMS_P1;PMS_P2;Temp;Humidity;BMP_temperature;BMP_pressure;BME280_temperature;BME280_humidity;BME280_pressure;Samples;Min_cycle;Max_cycle;Signal;HPM_P1;HPM_P2
2023/01/22 07:56:12;;;;;;;;;;;;;;;2.33;74.43;98858.75;5137175;23;19978;-60
2023/01/22 07:58:39;;;;;;;;;;;;;;;2.07;75.08;98861.13;4878722;29;20023;-60
2023/01/22 08:01:06;;;;;;;;;;;;;;;1.95;76.40;98874.34;4877064;29;20332;-59
2023/01/22 08:03:32;;;;;;;;;;;;;;;1.83;76.63;98878.06;4878484;29;20024;-59
2023/01/22 08:05:58;;;;;;;;;;;;;;;1.48;76.81;98879.69;4869750;29;20010;-58
2023/01/22 08:08:23;;;;;;;;;;;;;;;1.42;77.54;98882.41;4852845;29;20121;-59
2023/01/22 08:10:48;;;;;;;;;;;;;;;1.46;78.56;98884.03;4857998;29;19942;-58
2023/01/22 08:13:13;;;;;;;;;;;;;;;1.45;78.75;98884.09;4858110;29;19916;-59
2023/01/22 08:15:40;;;;;;;;;;;;;;;1.43;78.70;98884.09;4854771;29;19927;-58
2023/01/22 08:18:06;;;;;;;;;;;;;;;1.36;78.97;98882.53;4858071;29;19924;-59
2023/01/22 08:20:31;;;;;;;;;;;;;;;1.33;78.45;98882.59;4852095;29;20011;-58
2023/01/22 08:22:57;;;;;;;;;;;;;;;1.26;78.76;98891.34;4858930;29;20011;-58
2023/01/22 08:25:22;;;;;;;;;;;;;;;1.27;79.74;98885.28;4859426;29;20319;-57
2023/01/22 08:27:48;;;;;;;;;;;;;;;1.26;79.44;98888.75;4858459;29;19930;-59
2023/01/22 08:30:14;;;;;;;;;;;;;;;1.28;79.38;98890.44;4858127;29;20348;-58
2023/01/22 08:32:40;;;;;;;;;;;;;;;1.23;79.24;98886.25;4854975;29;19920;-59
2023/01/22 08:35:06;;;;;;;;;;;;;;;1.06;80.04;98895.16;4859836;29;19920;-58
2023/01/22 08:37:31;;;;;;;;;;;;;;;1.06;79.61;98902.91;4860259;29;20003;-59
2023/01/22 08:39:56;;;;;;;;;;;;;;;0.90;80.59;98909.28;4859501;29;19916;-59
2023/01/22 08:42:21;;;;;;;;;;;;;;;0.99;81.14;98903.91;4857013;29;19920;-58
2023/01/22 08:44:46;;;;;;;;;;;;;;;1.09;80.91;98909.75;4859958;29;19927;-59
2023/01/22 08:47:12;;;;;;;;;;;;;;;1.11;80.16;98918.34;4863074;29;19924;-58
2023/01/22 08:49:37;;;;;;;;;;;;;;;1.09;80.31;98914.94;4864032;29;19916;-58
2023/01/22 08:52:02;;;;;;;;;;;;;;;1.11;80.54;98919.19;4860064;29;20625;-58
2023/01/22 08:54:27;;;;;;;;;;;;;;;1.15;80.85;98920.00;4860803;29;20451;-59
2023/01/22 08:56:53;;;;;;;;;;;;;;;1.16;80.36;98927.69;4862894;29;19969;-59
2023/01/22 08:59:18;;;;;;;;;;;;;;;1.17;81.19;98923.38;4858502;29;19988;-60
2023/01/22 09:01:43;;;;;;;;;;;;;;;1.18;80.56;98925.94;4862229;29;20042;-59
2023/01/22 09:04:08;;;;;;;;;;;;;;;1.14;80.42;98926.91;4863342;29;19947;-59
2023/01/22 09:06:34;;;;;;;;;;;;;;;1.22;80.80;98931.06;4863404;29;19971;-59
2023/01/22 09:09:00;;;;;;;;;;;;;;;1.23;80.37;98927.59;4859631;29;19916;-59
2023/01/22 09:11:26;;;;;;;;;;;;;;;1.29;80.26;98937.81;4857187;29;20326;-60
2023/01/22 09:13:54;;;;;;;;;;;;;;;1.34;80.56;98935.97;4859739;29;19976;-59
2023/01/22 09:16:20;;;;;;;;;;;;;;;1.41;80.35;98937.56;4863843;29;20285;-58
2023/01/22 09:18:45;;;;;;;;;;;;;;;1.47;80.46;98937.44;4862047;29;19916;-59
2023/01/22 09:21:10;;;;;;;;;;;;;;;1.49;79.21;98933.09;4864595;29;19916;-58
2023/01/22 09:23:35;;;;;;;;;;;;;;;1.53;80.02;98941.66;4860235;29;19976;-59
2023/01/22 09:26:01;;;;;;;;;;;;;;;1.41;79.28;98946.19;4861713;29;20315;-60
2023/01/22 09:28:26;;;;;;;;;;;;;;;1.46;78.68;98950.41;4862699;29;20346;-60
2023/01/22 09:30:51;;;;;;;;;;;;;;;1.39;78.73;98947.09;4861992;29;19932;-59
2023/01/22 09:33:16;;;;;;;;;;;;;;;1.25;79.51;98943.94;4862854;29;19924;-59
2023/01/22 09:35:41;;;;;;;;;;;;;;;1.23;80.00;98953.44;4862293;29;19920;-59
2023/01/22 09:38:07;;;;;;;;;;;;;;;1.32;79.92;98958.44;4861131;29;19921;-61
2023/01/22 09:40:43;;;;;;;;;;;;;;;1.32;79.46;98950.69;4860981;29;20007;-61
2023/01/22 09:43:22;;;;;;;;;;;;;;;1.27;79.87;98955.06;4862981;29;19952;-61
2023/01/22 09:45:47;;;;;;;;;;;;;;;1.30;79.77;98966.19;4853937;29;19928;-59
2023/01/22 09:48:13;;;;;;;;;;;;;;;3.40;84.87;98958.72;4862386;29;19923;-59
2023/01/22 09:50:39;;;;;;;;;;;;;;;2.88;77.15;98960.09;4861529;29;20337;-61
2023/01/22 09:53:05;;;;;;;;;;;;;;;2.63;75.30;98951.25;4862240;29;19916;-59
2023/01/22 09:55:32;;;;;;;;;;;;;;;2.38;75.46;98957.03;4860459;29;20425;-59
2023/01/22 09:57:58;;;;;;;;;;;;;;;2.08;75.83;98961.16;4857005;29;20381;-60
2023/01/22 10:00:36;;;;;;;;;;;;;;;1.92;77.05;98964.97;4855738;29;20345;-59
2023/01/22 10:03:03;;;;;;;;;;;;;;;1.83;76.73;98966.03;4853959;29;19927;-59
2023/01/22 10:05:29;;;;;;;;;;;;;;;1.72;77.79;98971.44;4861293;29;19924;-60
2023/01/22 10:07:59;;;;;;;;;;;;;;;1.64;78.12;98976.72;4858030;29;19924;-59
2023/01/22 10:10:25;;;;;;;;;;;;;;;1.59;77.61;98972.56;4857058;29;19920;-59
2023/01/22 10:12:59;;;;;;;;;;;;;;;1.49;78.85;98977.06;4858434;29;19968;-59
2023/01/22 10:15:24;;;;;;;;;;;;;;;1.39;78.66;98972.94;4857678;29;19920;-59
2023/01/22 10:17:50;;;;;;;;;;;;;;;1.23;79.16;98962.03;4855978;29;19944;-61
2023/01/22 10:20:17;;;;;;;;;;;;;;;1.31;79.11;98967.06;4859257;29;20308;-59
2023/01/22 10:22:42;;;;;;;;;;;;;;;1.22;79.24;98962.91;4855552;29;20296;-59
2023/01/22 10:25:11;;;;;;;;;;;;;;;1.30;79.31;98968.78;4859734;29;20373;-59
2023/01/22 10:27:39;;;;;;;;;;;;;;;1.37;79.13;98959.19;4859373;29;19932;-59
2023/01/22 10:30:15;;;;;;;;;;;;;;;1.53;78.67;98965.75;4857217;29;19924;-58
2023/01/22 10:32:41;;;;;;;;;;;;;;;1.66;78.24;98959.47;4854626;29;19917;-58
2023/01/22 10:35:16;;;;;;;;;;;;;;;1.73;77.59;98965.38;4858071;29;19924;-56
2023/01/22 10:37:44;;;;;;;;;;;;;;;1.75;77.18;98967.91;4844088;29;20430;-58
2023/01/22 10:40:19;;;;;;;;;;;;;;;2.12;85.46;98967.97;4855486;29;19972;-59
2023/01/22 10:42:44;;;;;;;;;;;;;;;2.13;79.08;98973.13;4860306;29;20320;-59
2023/01/22 10:45:14;;;;;;;;;;;;;;;2.16;76.76;98963.56;4857296;29;20395;-59
2023/01/22 10:47:39;;;;;;;;;;;;;;;2.20;77.15;98966.03;4856135;29;19952;-58
2023/01/22 10:50:05;;;;;;;;;;;;;;;2.31;76.63;98974.44;4857648;29;19924;-59
2023/01/22 10:52:32;;;;;;;;;;;;;;;2.44;76.29;98980.16;4851314;29;19947;-60
2023/01/22 10:54:57;;;;;;;;;;;;;;;2.51;75.81;98983.47;4854770;29;19920;-59
2023/01/22 10:57:26;;;;;;;;;;;;;;;2.53;75.17;98977.38;4859215;29;19931;-58
2023/01/22 10:59:53;;;;;;;;;;;;;;;2.60;74.67;98978.91;4851263;29;20530;-60
2023/01/22 11:02:20;;;;;;;;;;;;;;;2.63;74.75;98980.59;4854203;29;19928;-59
2023/01/22 11:04:45;;;;;;;;;;;;;;;2.63;74.57;98987.53;4857034;29;19920;-59
2023/01/22 11:07:12;;;;;;;;;;;;;;;2.60;74.93;98985.84;4859981;29;19931;-60
2023/01/22 11:10:06;;;;;;;;;;;;;;;2.67;74.90;98992.56;4850897;29;20007;-59
2023/01/22 11:12:33;;;;;;;;;;;;;;;2.76;74.64;98983.75;4813850;29;19921;-60
2023/01/22 11:15:01;;;;;;;;;;;;;;;2.84;73.98;98987.00;4803393;29;20377;-60
2023/01/22 11:17:35;;;;;;;;;;;;;;;2.82;73.60;98981.84;4819039;29;19928;-59
2023/01/22 11:20:02;;;;;;;;;;;;;;;2.86;73.03;98982.63;4806592;29;19921;-57
2023/01/22 11:22:32;;;;;;;;;;;;;;;2.90;73.24;98983.41;4807637;29;19923;-60
2023/01/22 11:24:57;;;;;;;;;;;;;;;2.66;73.54;98982.25;4805502;29;20011;-58
2023/01/22 11:27:41;;;;;;;;;;;;;;;2.71;72.99;98983.00;4821207;29;20037;-58
2023/01/22 11:30:12;;;;;;;;;;;;;;;2.61;73.42;98977.19;4821025;29;19920;-57
2023/01/22 11:32:49;;;;;;;;;;;;;;;2.68;73.67;98977.88;4812850;29;19996;-60
2023/01/22 11:35:17;;;;;;;;;;;;;;;2.56;73.60;98974.72;4814799;29;19925;-59
2023/01/22 11:37:42;;;;;;;;;;;;;;;2.48;73.59;98975.75;4820310;29;19921;-59
2023/01/22 11:40:16;;;;;;;;;;;;;;;2.46;74.05;98967.19;4809608;29;19921;-59
2023/01/22 11:43:00;;;;;;;;;;;;;;;2.42;73.21;98970.75;4813336;29;20007;-59
2023/01/22 11:45:31;;;;;;;;;;;;;;;2.38;73.69;98964.78;4819448;29;20350;-59
2023/01/22 11:48:04;;;;;;;;;;;;;;;2.30;74.11;98964.09;4823585;29;19925;-59
2023/01/22 11:50:33;;;;;;;;;;;;;;;2.42;74.78;98971.59;4855834;29;19940;-59
2023/01/22 11:52:58;;;;;;;;;;;;;;;2.50;73.37;98964.50;4825385;29;19916;-59
2023/01/22 11:55:42;;;;;;;;;;;;;;;2.56;73.99;98969.53;4841660;29;20388;-60
2023/01/22 11:58:13;;;;;;;;;;;;;;;2.61;73.83;98972.88;4855160;29;19920;-58
2023/01/22 12:00:53;;;;;;;;;;;;;;;2.70;73.65;98958.84;4859421;29;19928;-58
2023/01/22 12:03:18;;;;;;;;;;;;;;;2.80;74.09;98957.72;4859380;29;19920;-59
2023/01/22 12:05:56;;;;;;;;;;;;;;;2.74;73.28;98962.19;4859983;29;20277;-59
2023/01/22 12:08:24;;;;;;;;;;;;;;;2.64;72.73;98955.53;4856927;29;20412;-60
2023/01/22 12:10:59;;;;;;;;;;;;;;;2.59;72.71;98959.09;4859202;29;19974;-58
2023/01/22 12:13:32;;;;;;;;;;;;;;;2.68;73.36;98962.34;4855698;29;20038;-59
2023/01/22 12:16:07;;;;;;;;;;;;;;;2.79;73.38;98966.38;4851432;29;19984;-59
2023/01/22 12:18:45;;;;;;;;;;;;;;;2.80;72.92;98962.03;4856809;29;19931;-60
2023/01/22 12:21:10;;;;;;;;;;;;;;;2.72;73.09;98963.97;4853923;29;19924;-57
2023/01/22 12:23:40;;;;;;;;;;;;;;;2.68;73.11;98958.00;4860377;29;19920;-58
2023/01/22 12:26:08;;;;;;;;;;;;;;;2.57;73.68;98954.84;4856777;29;20303;-59
2023/01/22 12:28:39;;;;;;;;;;;;;;;2.63;73.62;98953.84;4850090;29;20362;-57
2023/01/22 12:31:30;;;;;;;;;;;;;;;2.68;72.97;98951.97;4855807;29;19927;-58
2023/01/22 12:33:56;;;;;;;;;;;;;;;2.60;72.82;98955.59;4857055;29;20309;-58
2023/01/22 12:36:22;;;;;;;;;;;;;;;2.42;72.85;98950.88;4857590;29;19927;-58
2023/01/22 12:38:57;;;;;;;;;;;;;;;2.41;73.82;98964.72;4861982;29;19916;-59
2023/01/22 12:41:43;;;;;;;;;;;;;;;2.28;73.48;98952.94;4860848;29;19916;-57
2023/01/22 12:44:20;;;;;;;;;;;;;;;2.27;74.09;98957.28;4860462;29;19927;-59
2023/01/22 12:47:04;;;;;;;;;;;;;;;2.29;74.42;98954.66;4856974;29;20381;-60
2023/01/22 12:49:29;;;;;;;;;;;;;;;2.50;73.45;98953.28;4859883;29;19959;-60
2023/01/22 12:51:54;;;;;;;;;;;;;;;2.61;73.51;98951.28;4861890;29;19959;-61
2023/01/22 12:54:20;;;;;;;;;;;;;;;2.68;73.65;98946.78;4862738;29;19963;-61
2023/01/22 12:56:45;;;;;;;;;;;;;;;2.79;73.20;98950.00;4860348;29;19936;-59
2023/01/22 12:59:28;;;;;;;;;;;;;;;2.82;72.43;98944.72;4861014;29;19920;-57
2023/01/22 13:01:57;;;;;;;;;;;;;;;2.77;72.55;98951.75;4862753;29;19920;-58
2023/01/22 13:04:26;;;;;;;;;;;;;;;2.68;72.49;98949.38;4860951;29;20242;-59
2023/01/22 13:06:51;;;;;;;;;;;;;;;2.65;72.85;98945.16;4860838;29;20369;-59
2023/01/22 13:09:24;;;;;;;;;;;;;;;2.71;73.25;98944.13;4856633;29;19924;-60
2023/01/22 13:11:49;;;;;;;;;;;;;;;2.68;72.60;98949.38;4851833;29;19952;-59
2023/01/22 13:14:20;;;;;;;;;;;;;;;2.70;73.33;98947.63;4842563;29;20379;-59
2023/01/22 13:17:02;;;;;;;;;;;;;;;2.80;73.05;98949.09;4856310;29;19988;-59
2023/01/22 13:19:29;;;;;;;;;;;;;;;2.80;72.70;98949.09;4858976;29;19924;-60
2023/01/22 13:21:58;;;;;;;;;;;;;;;2.71;73.10;98946.72;4860456;29;19976;-59
2023/01/22 13:24:23;;;;;;;;;;;;;;;2.78;73.77;98948.28;4852470;29;20011;-59
2023/01/22 13:26:50;;;;;;;;;;;;;;;2.80;72.81;98947.34;4843225;29;20032;-59
2023/01/22 13:29:18;;;;;;;;;;;;;;;2.83;72.89;98951.59;4852894;29;20007;-58
2023/01/22 13:31:50;;;;;;;;;;;;;;;2.71;72.32;98954.50;4859626;29;20168;-59
2023/01/22 13:34:15;;;;;;;;;;;;;;;2.66;73.34;98953.78;4856847;29;19927;-59
2023/01/22 13:36:43;;;;;;;;;;;;;;;2.67;73.49;98955.47;4852566;29;19972;-58
2023/01/22 13:39:14;;;;;;;;;;;;;;;2.74;73.78;98962.19;4848094;29;19921;-57
2023/01/22 13:41:40;;;;;;;;;;;;;;;2.82;73.43;98960.25;4849758;29;19964;-58
2023/01/22 13:44:05;;;;;;;;;;;;;;;2.90;74.07;98957.50;4858918;29;19920;-58
2023/01/22 13:46:30;;;;;;;;;;;;;;;2.97;74.03;98959.03;4859218;29;19924;-58
2023/01/22 13:49:02;;;;;;;;;;;;;;;2.99;73.18;98963.25;4856548;29;19959;-57
2023/01/22 13:51:28;;;;;;;;;;;;;;;2.85;72.36;98965.34;4859386;29;19916;-59
2023/01/22 13:53:53;;;;;;;;;;;;;;;2.78;72.59;98961.22;4861529;29;19924;-58
2023/01/22 13:56:19;;;;;;;;;;;;;;;2.68;72.49;98965.78;4860769;29;19920;-57
2023/01/22 13:58:44;;;;;;;;;;;;;;;2.64;72.71;98971.06;4861095;29;20007;-59
2023/01/22 14:01:10;;;;;;;;;;;;;;;2.64;72.47;98964.16;4860738;29;20044;-59
2023/01/22 14:03:35;;;;;;;;;;;;;;;2.64;73.51;98965.91;4861246;29;19965;-58
2023/01/22 14:06:10;;;;;;;;;;;;;;;2.64;73.16;98964.16;4860703;29;19924;-58
2023/01/22 14:08:45;;;;;;;;;;;;;;;2.67;72.76;98960.66;4860447;29;20010;-59
2023/01/22 14:11:10;;;;;;;;;;;;;;;2.69;72.74;98966.66;4859748;29;19973;-59
2023/01/22 14:13:40;;;;;;;;;;;;;;;2.67;72.19;98963.25;4860840;29;19996;-58
2023/01/22 14:16:06;;;;;;;;;;;;;;;2.56;72.92;98974.72;4861026;29;19997;-59
2023/01/22 14:18:31;;;;;;;;;;;;;;;2.66;72.81;98985.69;4859607;29;19935;-59
2023/01/22 14:20:56;;;;;;;;;;;;;;;2.74;72.46;98988.94;4861130;29;19916;-59
2023/01/22 14:23:21;;;;;;;;;;;;;;;2.72;72.96;98980.38;4860535;29;20010;-59
2023/01/22 14:25:47;;;;;;;;;;;;;;;2.78;72.93;98984.53;4860308;29;19928;-59
2023/01/22 14:28:13;;;;;;;;;;;;;;;2.75;72.24;98990.66;4856844;29;19927;-59
2023/01/22 14:30:38;;;;;;;;;;;;;;;2.76;72.58;98986.34;4859016;29;20308;-58
2023/01/22 14:33:04;;;;;;;;;;;;;;;2.76;73.27;98982.00;4860576;29;19924;-58
2023/01/22 14:35:29;;;;;;;;;;;;;;;2.69;72.88;98989.97;4860692;29;19931;-58
2023/01/22 14:37:54;;;;;;;;;;;;;;;2.64;73.26;98994.38;4860904;29;19976;-58
2023/01/22 14:40:20;;;;;;;;;;;;;;;2.56;72.88;98990.25;4842432;29;19996;-58
2023/01/22 14:42:48;;;;;;;;;;;;;;;2.44;73.35;98998.28;4860652;29;19923;-59
2023/01/22 14:45:13;;;;;;;;;;;;;;;2.40;74.80;98999.25;4859279;29;20300;-58
2023/01/22 14:47:38;;;;;;;;;;;;;;;2.29;74.48;98999.50;4860351;29;20384;-57
2023/01/22 14:50:04;;;;;;;;;;;;;;;2.31;74.64;99002.06;4859647;29;19942;-57
2023/01/22 14:52:29;;;;;;;;;;;;;;;2.21;74.82;99008.34;4860104;29;20015;-58
2023/01/22 14:54:55;;;;;;;;;;;;;;;2.15;75.49;99006.72;4859316;29;19920;-59
2023/01/22 14:57:20;;;;;;;;;;;;;;;2.21;76.04;99000.56;4860239;29;19923;-57
2023/01/22 14:59:45;;;;;;;;;;;;;;;2.20;75.77;99011.78;4857793;29;19926;-57
2023/01/22 15:02:10;;;;;;;;;;;;;;;2.25;76.22;99005.63;4859525;29;19920;-60
2023/01/22 15:04:39;;;;;;;;;;;;;;;2.23;75.61;99009.13;4859423;29;19988;-60
2023/01/22 15:07:04;;;;;;;;;;;;;;;2.22;76.24;99007.44;4854456;29;19929;-60
2023/01/22 15:09:29;;;;;;;;;;;;;;;2.20;75.76;99012.63;4854841;29;19928;-58
2023/01/22 15:11:55;;;;;;;;;;;;;;;2.22;76.07;99004.84;4858908;29;19927;-60
2023/01/22 15:14:20;;;;;;;;;;;;;;;2.20;75.62;99006.63;4853197;29;20015;-61
2023/01/22 15:16:45;;;;;;;;;;;;;;;2.18;75.50;99008.41;4858589;29;19955;-61
2023/01/22 15:19:10;;;;;;;;;;;;;;;2.20;75.72;99011.78;4858503;29;20011;-61
2023/01/22 15:21:36;;;;;;;;;;;;;;;2.20;74.84;99010.03;4858912;29;19955;-59
2023/01/22 15:24:01;;;;;;;;;;;;;;;2.15;74.41;99014.50;4852844;29;19920;-61
2023/01/22 15:26:30;;;;;;;;;;;;;;;2.14;74.76;99018.81;4843189;29;20402;-60
2023/01/22 15:28:55;;;;;;;;;;;;;;;2.18;75.64;99017.00;4859670;29;20407;-63
2023/01/22 15:31:21;;;;;;;;;;;;;;;2.14;74.48;99023.16;4858064;29;19924;-60
2023/01/22 15:33:46;;;;;;;;;;;;;;;2.14;75.52;99029.16;4859807;29;20389;-60
2023/01/22 15:36:11;;;;;;;;;;;;;;;2.08;74.65;99031.88;4858942;29;20011;-61
2023/01/22 15:38:36;;;;;;;;;;;;;;;2.10;75.15;99032.72;4859831;29;19964;-61
2023/01/22 15:41:05;;;;;;;;;;;;;;;2.12;74.73;99041.28;4859829;29;19920;-61
2023/01/22 15:43:30;;;;;;;;;;;;;;;2.14;74.65;99039.53;4858630;29;19977;-61
2023/01/22 15:45:56;;;;;;;;;;;;;;;2.03;74.56;99044.06;4859423;29;19920;-59
2023/01/22 15:48:21;;;;;;;;;;;;;;;2.04;74.96;99047.50;4858723;29;19920;-61
2023/01/22 15:50:46;;;;;;;;;;;;;;;2.07;74.75;99050.88;4859172;29;19920;-60
2023/01/22 15:53:12;;;;;;;;;;;;;;;2.02;74.95;99057.03;4859592;29;19965;-61
2023/01/22 15:55:37;;;;;;;;;;;;;;;1.95;74.72;99048.53;4856662;29;19923;-60
2023/01/22 15:58:02;;;;;;;;;;;;;;;1.96;75.29;99052.84;4858271;29;19921;-61
2023/01/22 16:00:27;;;;;;;;;;;;;;;1.92;75.57;99047.75;4859147;29;19980;-59
2023/01/22 16:02:53;;;;;;;;;;;;;;;1.90;75.77;99056.41;4858882;29;19927;-59
2023/01/22 16:05:20;;;;;;;;;;;;;;;1.90;76.03;99047.78;4857547;29;19969;-59
2023/01/22 16:07:45;;;;;;;;;;;;;;;1.94;75.47;99054.59;4852983;29;20385;-58
2023/01/22 16:10:10;;;;;;;;;;;;;;;1.98;75.97;99053.66;4848696;29;19928;-57
2023/01/22 16:12:36;;;;;;;;;;;;;;;1.93;75.75;99045.16;4855098;29;19922;-59
2023/01/22 16:15:02;;;;;;;;;;;;;;;1.95;76.09;99053.72;4857613;29;20289;-57
2023/01/22 16:17:27;;;;;;;;;;;;;;;1.90;76.16;99050.38;4858519;29;19924;-59
2023/01/22 16:19:52;;;;;;;;;;;;;;;1.88;76.79;99059.91;4859328;29;20015;-58
2023/01/22 16:22:17;;;;;;;;;;;;;;;1.79;76.76;99057.47;4859892;29;20007;-58
2023/01/22 16:24:43;;;;;;;;;;;;;;;1.75;77.33;99071.34;4858898;29;20401;-59
2023/01/22 16:27:08;;;;;;;;;;;;;;;1.61;78.00;99069.88;4856007;29;19924;-60
2023/01/22 16:29:33;;;;;;;;;;;;;;;1.59;79.28;99068.22;4859029;29;19920;-61
2023/01/22 16:31:58;;;;;;;;;;;;;;;1.63;78.82;99075.03;4858830;29;19930;-60
2023/01/22 16:34:24;;;;;;;;;;;;;;;1.65;79.25;99073.25;4859101;29;20007;-60
2023/01/22 16:36:49;;;;;;;;;;;;;;;1.67;79.70;99072.34;4858349;29;19999;-60
2023/01/22 16:39:15;;;;;;;;;;;;;;;1.64;79.45;99080.16;4847517;29;20372;-61
2023/01/22 16:41:41;;;;;;;;;;;;;;;1.55;80.29;99079.47;4858994;29;19920;-59
2023/01/22 16:44:07;;;;;;;;;;;;;;;1.58;80.42;99080.31;4858024;29;20300;-59
2023/01/22 16:46:32;;;;;;;;;;;;;;;1.60;80.48;99080.28;4859058;29;20014;-57
2023/01/22 16:49:09;;;;;;;;;;;;;;;1.58;80.67;99089.78;4858789;29;20353;-61
2023/01/22 16:51:38;;;;;;;;;;;;;;;1.58;81.29;99095.81;4857137;29;20354;-61
2023/01/22 16:54:03;;;;;;;;;;;;;;;1.57;81.36;99093.25;4852257;29;20377;-61
2023/01/22 16:56:28;;;;;;;;;;;;;;;1.58;81.60;99093.25;4849877;29;19946;-61
2023/01/22 16:58:53;;;;;;;;;;;;;;;1.61;81.94;99100.91;4858435;29;19924;-61
2023/01/22 17:01:19;;;;;;;;;;;;;;;1.62;81.53;99102.63;4858403;29;19916;-60
2023/01/22 17:03:44;;;;;;;;;;;;;;;1.57;82.07;99099.28;4850422;29;19927;-62
2023/01/22 17:06:13;;;;;;;;;;;;;;;3.89;100.00;99084.50;4856568;29;19920;-60
2023/01/22 17:08:38;;;;;;;;;;;;;;;4.00;86.66;99089.41;4860894;29;20388;-64
2023/01/22 17:11:05;;;;;;;;;;;;;;;3.53;80.95;99091.53;4860726;29;19966;-66
2023/01/22 17:13:30;;;;;;;;;;;;;;;3.18;78.89;99100.19;4854692;29;20351;-66
2023/01/22 17:15:55;;;;;;;;;;;;;;;2.89;77.65;99101.75;4859081;29;19949;-66
2023/01/22 17:18:20;;;;;;;;;;;;;;;2.50;77.90;99101.75;4862244;29;20018;-66
2023/01/22 17:20:45;;;;;;;;;;;;;;;2.23;79.16;99108.34;4861037;29;20015;-66
2023/01/22 17:23:11;;;;;;;;;;;;;;;2.13;80.30;99110.28;4860379;29;21367;-66
2023/01/22 17:25:40;;;;;;;;;;;;;;;2.08;80.31;99109.53;4860038;29;20011;-66
2023/01/22 17:28:06;;;;;;;;;;;;;;;2.04;81.35;99113.06;4862092;29;19920;-66
2023/01/22 17:30:31;;;;;;;;;;;;;;;1.99;80.68;99117.44;4861879;29;19968;-67
2023/01/22 17:32:56;;;;;;;;;;;;;;;1.92;81.48;99121.03;4861784;29;20144;-66
2023/01/22 17:35:21;;;;;;;;;;;;;;;1.90;81.52;99122.81;4856934;29;19916;-66
2023/01/22 17:37:47;;;;;;;;;;;;;;;1.87;81.78;99126.31;4858659;29;19976;-64
2023/01/22 17:40:12;;;;;;;;;;;;;;;1.85;81.78;99132.38;4853423;29;19971;-63
2023/01/22 17:42:37;;;;;;;;;;;;;;;1.84;82.28;99135.88;4858707;29;19927;-64
2023/01/22 17:45:03;;;;;;;;;;;;;;;1.81;81.99;99130.75;4858949;29;19920;-61
2023/01/22 17:47:28;;;;;;;;;;;;;;;1.79;82.39;99135.09;4857504;29;19924;-63
2023/01/22 17:49:54;;;;;;;;;;;;;;;1.78;82.58;99136.81;4861531;29;19920;-63
2023/01/22 17:52:19;;;;;;;;;;;;;;;1.76;82.31;99140.34;4861479;29;19916;-62
2023/01/22 17:54:45;;;;;;;;;;;;;;;1.74;82.59;99137.75;4860398;29;19916;-63
2023/01/22 17:57:10;;;;;;;;;;;;;;;1.74;83.12;99147.25;4859356;29;20412;-62
2023/01/22 17:59:35;;;;;;;;;;;;;;;3.51;94.82;99140.88;4860169;29;19916;-65
2023/01/22 18:02:01;;;;;;;;;;;;;;;3.14;85.01;99150.41;4861667;29;20266;-66
2023/01/22 18:04:26;;;;;;;;;;;;;;;2.85;82.11;99152.75;4860770;29;19922;-66
2023/01/22 18:06:52;;;;;;;;;;;;;;;2.64;81.44;99160.16;4858155;29;19924;-65
2023/01/22 18:09:19;;;;;;;;;;;;;;;2.42;80.51;99158.03;4860479;29;19976;-65
2023/01/22 18:11:44;;;;;;;;;;;;;;;2.27;80.96;99158.31;4858160;29;19928;-59
2023/01/22 18:14:16;;;;;;;;;;;;;;;2.47;84.92;99161.34;4861021;29;19964;-65
2023/01/22 18:16:41;;;;;;;;;;;;;;;2.33;83.14;99164.22;4859237;29;19916;-66
2023/01/22 18:19:06;;;;;;;;;;;;;;;2.23;82.06;99165.28;4855674;29;19927;-63
2023/01/22 18:21:32;;;;;;;;;;;;;;;2.09;81.73;99170.75;4852781;29;20006;-61
2023/01/22 18:23:58;;;;;;;;;;;;;;;2.01;81.51;99170.03;4861093;29;19916;-64
2023/01/22 18:26:25;;;;;;;;;;;;;;;1.90;82.43;99174.56;4858333;29;19931;-61
2023/01/22 18:28:50;;;;;;;;;;;;;;;1.87;83.06;99174.63;4859349;29;19924;-64
2023/01/22 18:31:16;;;;;;;;;;;;;;;1.84;83.18;99175.53;4860105;29;19924;-62
2023/01/22 18:33:43;;;;;;;;;;;;;;;1.83;83.28;99183.31;4860837;29;20388;-62
2023/01/22 18:36:11;;;;;;;;;;;;;;;1.76;82.59;99180.00;4860359;29;19917;-63
2023/01/22 18:38:36;;;;;;;;;;;;;;;1.75;83.43;99185.16;4858964;29;19968;-62
2023/01/22 18:41:09;;;;;;;;;;;;;;;1.75;83.65;99185.16;4860845;29;19924;-61
2023/01/22 18:43:34;;;;;;;;;;;;;;;1.69;82.87;99186.16;4860706;29;19920;-62
2023/01/22 18:46:03;;;;;;;;;;;;;;;1.71;83.73;99193.88;4860401;29;20308;-61
2023/01/22 18:48:29;;;;;;;;;;;;;;;1.71;84.16;99194.72;4855993;29;19927;-62
2023/01/22 18:50:54;;;;;;;;;;;;;;;1.72;84.35;99195.56;4860549;29;19920;-61
2023/01/22 18:53:19;;;;;;;;;;;;;;;1.69;83.96;99191.31;4860184;29;19957;-63
2023/01/22 18:55:44;;;;;;;;;;;;;;;1.53;83.89;99195.88;4860532;29;19988;-61
2023/01/22 18:58:20;;;;;;;;;;;;;;;1.49;84.05;99193.38;4858820;29;19921;-63
2023/01/22 19:00:45;;;;;;;;;;;;;;;1.50;84.66;99198.50;4855542;29;19920;-66
2023/01/22 19:03:11;;;;;;;;;;;;;;;1.48;84.85;99197.69;4851898;29;19927;-62
2023/01/22 19:05:37;;;;;;;;;;;;;;;1.52;84.45;99204.53;4859419;29;20375;-63
2023/01/22 19:08:02;;;;;;;;;;;;;;;1.51;84.46;99205.38;4858607;29;19924;-64
2023/01/22 19:10:27;;;;;;;;;;;;;;;1.53;84.72;99205.38;4858459;29;19920;-65
2023/01/22 19:12:52;;;;;;;;;;;;;;;1.54;84.72;99205.34;4857379;29;19931;-61
2023/01/22 19:15:18;;;;;;;;;;;;;;;1.48;84.60;99197.69;4856941;29;19920;-63
2023/01/22 19:17:43;;;;;;;;;;;;;;;1.37;84.75;99200.44;4859600;29;19931;-62
2023/01/22 19:20:10;;;;;;;;;;;;;;;1.31;85.73;99202.28;4860212;29;19923;-63
2023/01/22 19:22:35;;;;;;;;;;;;;;;1.18;86.20;99205.03;4859834;29;19920;-63
2023/01/22 19:25:01;;;;;;;;;;;;;;;1.16;86.49;99206.78;4856075;29;19920;-62
2023/01/22 19:27:29;;;;;;;;;;;;;;;1.17;86.63;99199.88;4859008;29;19947;-64
2023/01/22 19:29:54;;;;;;;;;;;;;;;1.03;86.50;99194.06;4855809;29;19924;-64
2023/01/22 19:32:26;;;;;;;;;;;;;;;1.03;86.64;99205.25;4857747;29;19935;-63
2023/01/22 19:34:51;;;;;;;;;;;;;;;1.06;87.03;99205.19;4857158;29;20061;-63
2023/01/22 19:37:16;;;;;;;;;;;;;;;1.08;86.80;99203.47;4859750;29;20007;-64
2023/01/22 19:39:42;;;;;;;;;;;;;;;1.07;86.47;99200.91;4858346;29;19927;-65
2023/01/22 19:42:07;;;;;;;;;;;;;;;1.00;87.39;99194.97;4859276;29;19920;-65
2023/01/22 19:44:32;;;;;;;;;;;;;;;0.97;87.07;99201.91;4854243;29;19978;-64
2023/01/22 19:46:58;;;;;;;;;;;;;;;0.91;87.54;99205.44;4860166;29;20445;-65
2023/01/22 19:49:23;;;;;;;;;;;;;;;0.87;87.86;99203.78;4858991;29;20301;-64
2023/01/22 19:51:48;;;;;;;;;;;;;;;0.96;88.27;99213.97;4858630;29;19924;-64
2023/01/22 19:54:14;;;;;;;;;;;;;;;0.95;87.87;99204.50;4855693;29;19924;-65
2023/01/22 19:56:39;;;;;;;;;;;;;;;0.95;87.71;99207.94;4858664;29;19927;-64
2023/01/22 19:59:18;;;;;;;;;;;;;;;0.99;87.75;99218.25;4857557;29;19932;-65
2023/01/22 20:01:47;;;;;;;;;;;;;;;1.01;88.06;99222.50;4859946;29;19977;-64
2023/01/22 20:04:20;;;;;;;;;;;;;;;1.04;87.57;99217.31;4856845;29;20400;-64
2023/01/22 20:06:50;;;;;;;;;;;;;;;0.98;88.21;99217.38;4859318;29;20981;-64
2023/01/22 20:09:18;;;;;;;;;;;;;;;0.98;87.42;99219.97;4843750;29;19920;-65
2023/01/22 20:11:44;;;;;;;;;;;;;;;1.03;87.79;99217.31;4858244;29;19945;-64
2023/01/22 20:14:09;;;;;;;;;;;;;;;1.09;87.45;99230.16;4858357;29;19920;-65
2023/01/22 20:16:34;;;;;;;;;;;;;;;1.09;87.54;99219.81;4859054;29;19924;-64
2023/01/22 20:19:00;;;;;;;;;;;;;;;1.05;86.52;99219.00;4859884;29;19973;-64
2023/01/22 20:21:25;;;;;;;;;;;;;;;1.05;87.25;99223.31;4859996;29;19916;-64
2023/01/22 20:23:51;;;;;;;;;;;;;;;1.02;87.35;99223.38;4858073;29;19969;-67
2023/01/22 20:26:16;;;;;;;;;;;;;;;1.06;87.56;99225.88;4856591;29;20408;-65
2023/01/22 20:28:41;;;;;;;;;;;;;;;1.06;87.12;99225.88;4857470;29;20355;-64
2023/01/22 20:31:08;;;;;;;;;;;;;;;1.08;86.73;99229.31;4859721;29;19916;-64
2023/01/22 20:33:33;;;;;;;;;;;;;;;1.04;86.66;99227.66;4858318;29;19916;-64
2023/01/22 20:35:59;;;;;;;;;;;;;;;0.92;86.88;99222.63;4854759;29;19921;-64
2023/01/22 20:38:25;;;;;;;;;;;;;;;0.92;87.64;99232.97;4851800;29;19924;-65
2023/01/22 20:40:50;;;;;;;;;;;;;;;0.96;87.37;99234.63;4858824;29;19939;-64
2023/01/22 20:43:16;;;;;;;;;;;;;;;0.96;87.65;99234.63;4862404;29;19916;-64
2023/01/22 20:45:41;;;;;;;;;;;;;;;1.00;87.56;99241.47;4862586;29;20912;-64
2023/01/22 20:48:07;;;;;;;;;;;;;;;1.01;86.67;99235.44;4857407;29;20016;-64
2023/01/22 20:50:32;;;;;;;;;;;;;;;0.94;86.74;99237.25;4863185;29;19916;-65
2023/01/22 20:52:57;;;;;;;;;;;;;;;0.94;87.23;99244.16;4862695;29;19964;-63